createdAt,value
2024-01-04T00:01:17.157Z,990.9165817871739
2024-01-04T00:04:37.052Z,990.9559805632929
2024-01-04T00:10:14.771Z,991.0156448281372
2024-01-04T00:15:45.719Z,991.0707908928529
2024-01-04T00:19:05.137Z,991.0926921438904
2024-01-04T00:22:24.252Z,991.1222199500421
2024-01-04T00:25:43.727Z,991.1656733933346
2024-01-04T00:29:04.047Z,991.2018473626053
2024-01-04T00:32:23.196Z,991.2359728473193
2024-01-04T00:35:42.893Z,991.2667663978167
2024-01-04T00:39:02.459Z,991.3300366900405
2024-01-04T00:42:22.034Z,991.3681516161199
2024-01-04T00:45:41.511Z,991.4159878904311
2024-01-04T00:51:23.001Z,991.4959319772731
2024-01-04T00:54:42.802Z,991.5461122957388
2024-01-04T00:58:02.346Z,991.6035891407417
2024-01-04T01:03:42.705Z,991.6655537172647
2024-01-04T01:07:02.630Z,991.6897165322689
2024-01-04T01:10:22.505Z,991.8308519424289
2024-01-04T01:13:42.494Z,991.9169730691135
2024-01-04T01:17:01.358Z,991.9476847390317
2024-01-04T01:20:21.336Z,992.0043752887025
2024-01-04T01:23:41.531Z,992.086042263857
2024-01-04T01:27:01.244Z,992.1155277893739
2024-01-04T01:30:21.353Z,992.2002579901364
2024-01-04T01:33:41.608Z,992.2878615889445
2024-01-04T01:37:01.687Z,992.3588786463479
2024-01-04T01:40:21.061Z,992.4281603713309
2024-01-04T01:43:40.232Z,992.4953861077777
2024-01-04T01:46:59.528Z,992.5177977502508
2024-01-04T01:50:18.765Z,992.5737998352824
2024-01-04T01:53:38.599Z,992.6138448830338
2024-01-04T01:56:57.398Z,992.6479254741342
2024-01-04T02:00:17.285Z,992.6870526446347
2024-01-04T02:06:25.797Z,992.785861770757
2024-01-04T02:09:45.245Z,992.8451633495226
2024-01-04T02:13:03.994Z,992.9284429217547
2024-01-04T02:16:23.856Z,993.0052355426358
2024-01-04T02:19:43.868Z,993.0879587447105
2024-01-04T02:23:04.442Z,993.1847775762337
2024-01-04T02:26:23.933Z,993.2621456257589
2024-01-04T02:29:44.251Z,993.3419537024744
2024-01-04T02:33:03.827Z,993.399395468403
2024-01-04T02:36:27.856Z,993.4705321392538
2024-01-04T02:39:47.781Z,993.5129517174296
2024-01-04T02:43:07.124Z,993.6242740356375
2024-01-04T02:46:27.870Z,993.6360783813019
2024-01-04T02:49:47.975Z,993.6951960666444
2024-01-04T02:54:51.996Z,993.854981262771
2024-01-04T02:58:10.592Z,993.8793471527129
2024-01-04T03:01:32.973Z,993.9409394049007
2024-01-04T03:04:52.246Z,994.0424903978968
2024-01-04T03:08:11.694Z,994.0903646170235
2024-01-04T03:11:30.628Z,994.1013505946465
2024-01-04T03:14:50.695Z,994.1458254433167
2024-01-04T03:18:10.494Z,994.1811631702042
2024-01-04T03:21:30.641Z,994.2527471322353
2024-01-04T03:24:50.686Z,994.3146272538149
2024-01-04T03:28:10.502Z,994.4041632880853
2024-01-04T03:34:29.312Z,994.5772173766318
2024-01-04T03:37:49.076Z,994.6263917593716
2024-01-04T03:41:07.829Z,994.6919656720248
2024-01-04T03:44:26.678Z,994.7575957945852
2024-01-04T03:47:46.743Z,994.7808335467688
2024-01-04T03:51:06.898Z,994.8110439679566
2024-01-04T03:54:26.431Z,994.8168945677535
2024-01-04T03:57:45.190Z,994.8736234030088
2024-01-04T04:01:05.015Z,994.9487581674138
2024-01-04T04:04:23.966Z,995.0224342753697
2024-01-04T04:07:44.515Z,995.1022463734895
2024-01-04T04:11:03.924Z,995.2186221694584
2024-01-04T04:14:23.542Z,995.2685795433849
2024-01-04T04:17:42.820Z,995.3318637716246
2024-01-04T04:21:02.524Z,995.3682035789107
2024-01-04T04:24:22.011Z,995.4574251394497
2024-01-04T04:27:41.338Z,995.540941434351
2024-01-04T04:31:01.188Z,995.5887159163694
2024-01-04T04:34:20.618Z,995.6350452974857
2024-01-04T04:37:39.901Z,995.6859552993229
2024-01-04T04:40:58.955Z,995.7509253552827
2024-01-04T04:44:18.721Z,995.8628443653038
2024-01-04T04:49:25.113Z,995.9995189917138
2024-01-04T04:52:44.376Z,996.0764143311176
2024-01-04T04:56:05.319Z,996.1148253202199
2024-01-04T04:59:25.394Z,996.199307485475
2024-01-04T05:02:45.346Z,996.263615239803
2024-01-04T05:06:04.995Z,996.2959068090977
2024-01-04T05:09:24.492Z,996.3808414184504
2024-01-04T05:12:44.196Z,996.4307120612181
2024-01-04T05:17:11.979Z,996.5558108749066
2024-01-04T05:20:33.272Z,996.6059310614595
2024-01-04T05:23:53.066Z,996.696376992639
2024-01-04T05:29:36.017Z,996.8198202437317
2024-01-04T05:32:55.775Z,996.9116611480373
2024-01-04T05:36:15.665Z,997.0294613693218
2024-01-04T05:41:26.564Z,997.1863286077642
2024-01-04T05:44:46.886Z,997.2585402582727
2024-01-04T05:48:06.830Z,997.3001537199725
2024-01-04T05:51:26.882Z,997.3581381744771
2024-01-04T05:55:00.951Z,997.4630531390767
2024-01-04T05:58:19.882Z,997.6172662488583
2024-01-04T06:01:40.111Z,997.7274996433875
2024-01-04T06:05:00.725Z,997.8218248454975
2024-01-04T06:08:20.411Z,997.9609770004615
2024-01-04T06:14:47.980Z,998.1520041237773
2024-01-04T06:18:08.194Z,998.2351794931662
2024-01-04T06:21:28.586Z,998.3041789373138
2024-01-04T06:24:48.362Z,998.3826936761274
2024-01-04T06:28:07.996Z,998.4952294691088
2024-01-04T06:31:27.544Z,998.6128096289219
2024-01-04T06:34:46.698Z,998.6765511829765
2024-01-04T06:38:06.220Z,998.7682673200509
2024-01-04T06:43:26.656Z,998.9011483948942
2024-01-04T06:46:46.720Z,999.0127149748711
2024-01-04T06:50:14.921Z,999.0875652284278
2024-01-04T06:53:37.518Z,999.138988575927
2024-01-04T06:56:56.965Z,999.2338321595605
2024-01-04T07:00:16.132Z,999.3067706443833
2024-01-04T07:03:36.088Z,999.3591554306757
2024-01-04T07:06:55.533Z,999.3742952108947
2024-01-04T07:10:15.458Z,999.4357009563387
2024-01-04T07:13:35.834Z,999.5185907115911
2024-01-04T07:16:55.352Z,999.6003463268598
2024-01-04T07:20:14.789Z,999.6603184914035
2024-01-04T07:26:45.482Z,999.7647642837345
2024-01-04T07:30:05.420Z,999.7859093443733
2024-01-04T07:33:25.943Z,999.8395420872739
2024-01-04T07:36:45.535Z,999.8986155701191
2024-01-04T07:40:05.186Z,999.9889911731752
2024-01-04T07:43:25.081Z,1000.0966214040027
2024-01-04T07:46:44.249Z,1000.1966997888753
2024-01-04T07:50:03.885Z,1000.231637521274
2024-01-04T07:55:53.207Z,1000.426396770686
2024-01-04T07:59:12.145Z,1000.4983944164406
2024-01-04T08:02:31.860Z,1000.5735942040845
2024-01-04T08:05:51.554Z,1000.6294536827104
2024-01-04T08:09:11.156Z,1000.6935703290352
2024-01-04T08:12:30.997Z,1000.7542380932001
2024-01-04T08:15:51.311Z,1000.8187296609516
2024-01-04T08:19:10.294Z,1000.9153096622471
2024-01-04T08:24:36.050Z,1001.0252574405259
2024-01-04T08:30:38.750Z,1001.1405094882365
2024-01-04T08:33:58.617Z,1001.1938195670756
2024-01-04T08:37:17.644Z,1001.2435972023964
2024-01-04T08:40:37.984Z,1001.3378615069079
2024-01-04T08:43:57.394Z,1001.4469700912729
2024-01-04T08:47:17.284Z,1001.4973157162748
2024-01-04T08:53:07.707Z,1001.6275564907021
2024-01-04T08:56:27.276Z,1001.7035990803121
2024-01-04T08:59:47.774Z,1001.762083688323
2024-01-04T09:03:07.679Z,1001.8385163648743
2024-01-04T09:06:27.144Z,1001.8928573497586
2024-01-04T09:09:46.905Z,1001.8731734357646
2024-01-04T09:13:06.486Z,1001.8930628156166
2024-01-04T09:17:50.591Z,1001.97013870596
2024-01-04T09:21:10.150Z,1002.0031031323396
2024-01-04T09:24:29.951Z,1002.0763056146019
2024-01-04T09:27:49.898Z,1002.1735336611201
2024-01-04T09:31:09.715Z,1002.2997029647338
2024-01-04T09:34:41.482Z,1002.3685156951107
2024-01-04T09:38:00.730Z,1002.439929897051
2024-01-04T09:41:20.180Z,1002.546040474227
2024-01-04T09:44:40.334Z,1002.6308627179816
2024-01-04T09:48:00.297Z,1002.6684855983187
2024-01-04T09:51:20.297Z,1002.7391791515915
2024-01-04T10:01:32.976Z,1002.8610615810433
2024-01-04T10:04:55.158Z,1002.9166462601972
2024-01-04T10:08:16.278Z,1002.9572289937446
2024-01-04T10:11:36.280Z,1003.0130007393959
2024-01-04T10:17:50.807Z,1003.1803249238767
2024-01-04T10:21:10.037Z,1003.1991714573094
2024-01-04T10:24:29.553Z,1003.2127094488046
2024-01-04T10:27:49.645Z,1003.2682173230536
2024-01-04T10:33:23.312Z,1003.3511028932431
2024-01-04T10:36:44.173Z,1003.4051479046532
2024-01-04T10:40:03.426Z,1003.442339296859
2024-01-04T10:43:22.827Z,1003.4862247460792
2024-01-04T10:46:42.495Z,1003.504605424649
2024-01-04T10:50:02.032Z,1003.5654921837219
2024-01-04T10:53:21.351Z,1003.587336643729
2024-01-04T10:57:21.461Z,1003.6169747708155
2024-01-04T11:00:41.273Z,1003.6564419094096
2024-01-04T11:04:00.889Z,1003.6892450721899
2024-01-04T11:07:20.417Z,1003.7160754444997
2024-01-04T11:10:40.307Z,1003.7477943565983
2024-01-04T11:13:59.484Z,1003.7636646161683
2024-01-04T11:17:19.134Z,1003.7531665446955
2024-01-04T11:20:39.392Z,1003.7838531128032
2024-01-04T11:23:59.304Z,1003.8245248246882
2024-01-04T11:27:19.184Z,1003.8529828751335
2024-01-04T11:33:35.095Z,1003.9033397477004
2024-01-04T11:36:55.100Z,1003.953857567172
2024-01-04T11:40:13.559Z,1004.0069283557932
2024-01-04T11:46:40.841Z,1004.0569414174412
2024-01-04T11:50:09.589Z,1004.1180905414932
2024-01-04T11:53:51.526Z,1004.1610196371705
2024-01-04T11:57:11.123Z,1004.1635099996793
2024-01-04T12:00:31.355Z,1004.1865179213204
2024-01-04T12:03:51.090Z,1004.2029409213543
2024-01-04T12:07:09.933Z,1004.2030309440291
2024-01-04T12:10:29.737Z,1004.2505859270192
2024-01-04T12:13:49.702Z,1004.3217966451897
2024-01-04T12:17:09.795Z,1004.31948457242
2024-01-04T12:20:29.382Z,1004.3451487574033
2024-01-04T12:23:48.742Z,1004.3759071607941
2024-01-04T12:27:08.759Z,1004.4549008776531
2024-01-04T12:30:28.326Z,1004.4903572541443
2024-01-04T12:34:36.703Z,1004.5228014095356
2024-01-04T12:37:56.396Z,1004.5177886870194
2024-01-04T12:41:16.109Z,1004.5083422558595
2024-01-04T12:45:24.543Z,1004.5321071427901
2024-01-04T12:48:44.693Z,1004.5836263228726
2024-01-04T12:52:04.473Z,1004.6144261664655
2024-01-04T12:56:36.497Z,1004.6386945406506
2024-01-04T13:01:52.470Z,1004.6893035218725
2024-01-04T13:08:16.883Z,1004.8177543800391
2024-01-04T13:11:36.462Z,1004.7984578089197
2024-01-04T13:16:35.164Z,1004.8138653494052
2024-01-04T13:19:55.078Z,1004.8492173090652
2024-01-04T13:23:14.816Z,1004.8633073749797
2024-01-04T13:26:34.561Z,1004.8634226351821
2024-01-04T13:29:53.722Z,1004.914338610521
2024-01-04T13:33:12.463Z,1004.9504322664977
2024-01-04T13:36:32.836Z,1005.0100906202265
2024-01-04T13:39:52.598Z,1005.0151648505209
2024-01-04T13:43:12.808Z,1005.0194734314834
2024-01-04T13:46:32.664Z,1005.0898019897985
2024-01-04T13:49:52.410Z,1005.1605444299288
2024-01-04T13:53:12.115Z,1005.2025000832343
2024-01-04T13:57:17.517Z,1005.2150955279692
2024-01-04T14:00:37.857Z,1005.2429006154498
2024-01-04T14:04:06.209Z,1005.2883180886915
2024-01-04T14:07:25.532Z,1005.3318238018593
2024-01-04T14:10:45.836Z,1005.3074197369746
2024-01-04T14:16:41.889Z,1005.3975289475824
2024-01-04T14:20:01.294Z,1005.4437116392119
2024-01-04T14:23:21.443Z,1005.4704152576867
2024-01-04T14:26:40.504Z,1005.5931734090813
2024-01-04T14:30:00.664Z,1005.6930287832695
2024-01-04T14:33:25.212Z,1005.7722509254224
2024-01-04T14:36:52.231Z,1005.7936424218798
2024-01-04T14:41:20.757Z,1005.9127855522534
2024-01-04T14:45:56.521Z,1005.9664241480102
2024-01-04T14:49:16.261Z,1005.9874021017565
2024-01-04T14:52:36.072Z,1006.0641748684714
2024-01-04T14:55:55.433Z,1006.1107577821333
2024-01-04T14:59:14.812Z,1006.1315742541232
2024-01-04T15:02:35.192Z,1006.1536706679152
2024-01-04T15:05:55.520Z,1006.1734515611051
2024-01-04T15:09:53.271Z,1006.2037403554752
2024-01-04T15:13:14.143Z,1006.2671162036987
2024-01-04T15:16:34.810Z,1006.2460079133871
2024-01-04T15:19:54.357Z,1006.2431680208415
2024-01-04T15:23:13.635Z,1006.2646292466159
2024-01-04T15:26:34.276Z,1006.2721408204013
2024-01-04T15:29:53.980Z,1006.3473871433376
2024-01-04T15:33:14.259Z,1006.3326455551124
2024-01-04T15:37:48.440Z,1006.2754014925634
2024-01-04T15:41:07.806Z,1006.3257310129612
2024-01-04T15:44:27.176Z,1006.396494472828
2024-01-04T15:47:47.395Z,1006.4502080412741
2024-01-04T15:52:07.147Z,1006.4848782676409
2024-01-04T15:55:26.623Z,1006.4745864544924
2024-01-04T15:58:46.529Z,1006.436305921297
2024-01-04T16:02:05.951Z,1006.4444860231781
2024-01-04T16:05:25.958Z,1006.4946154509347
2024-01-04T16:10:03.373Z,1006.5688322263605
2024-01-04T16:13:23.377Z,1006.6360324305821
2024-01-04T16:16:43.879Z,1006.6442269273388
2024-01-04T16:20:03.035Z,1006.5824892481786
2024-01-04T16:23:22.799Z,1006.597190420501
2024-01-04T16:28:07.266Z,1006.6335891272164
2024-01-04T16:32:11.303Z,1006.5714097681462
2024-01-04T16:35:31.427Z,1006.6015991222009
2024-01-04T16:38:51.295Z,1006.6627076549568
2024-01-04T16:42:11.178Z,1006.6741774246229
2024-01-04T16:50:31.166Z,1006.641309299197
2024-01-04T16:53:51.011Z,1006.689215510056
2024-01-04T16:57:11.194Z,1006.680055562691
2024-01-04T17:00:30.659Z,1006.7389211987094
2024-01-04T17:03:50.833Z,1006.7278361986043
2024-01-04T17:08:12.753Z,1006.8019148874407
2024-01-04T17:13:49.632Z,1006.9711168354777
2024-01-04T17:17:09.611Z,1006.9812677878442
2024-01-04T17:20:29.521Z,1006.9557100651926
2024-01-04T17:23:50.177Z,1006.9509027435842
2024-01-04T17:27:10.313Z,1006.9321260495315
2024-01-04T17:30:29.896Z,1006.9397774184483
2024-01-04T17:33:50.736Z,1006.9786796429008
2024-01-04T17:38:16.625Z,1007.0785828829527
2024-01-04T17:41:37.510Z,1007.1375801919736
2024-01-04T17:44:57.228Z,1007.1400626538556
2024-01-04T17:48:17.008Z,1007.1353272655045
2024-01-04T17:51:43.017Z,1007.1584475484416
2024-01-04T17:55:02.739Z,1007.1378832606233
2024-01-04T17:58:23.500Z,1007.1037279110574
2024-01-04T18:01:44.516Z,1007.0607102409867
2024-01-04T18:05:04.557Z,1007.0322396740759
2024-01-04T18:08:24.587Z,1007.0553559587775
2024-01-04T18:11:45.721Z,1007.0576522460503
2024-01-04T18:19:26.177Z,1007.141881259494
2024-01-04T18:22:47.297Z,1007.1297877366862
2024-01-04T18:26:07.345Z,1007.2091620758605
2024-01-04T18:29:27.296Z,1007.271106056123
2024-01-04T18:35:53.266Z,1007.3476622858524
2024-01-04T18:39:12.606Z,1007.3917156951564
2024-01-04T18:42:32.922Z,1007.4495359766631
2024-01-04T18:45:52.990Z,1007.5463297419714
2024-01-04T18:49:12.870Z,1007.6021112629695
2024-01-04T18:52:32.747Z,1007.5780972088206
2024-01-04T18:55:52.426Z,1007.5896861867059
2024-01-04T18:59:12.873Z,1007.6226591992711
2024-01-04T19:02:33.095Z,1007.542522101805
2024-01-04T19:05:53.533Z,1007.4333836510995
2024-01-04T19:09:14.064Z,1007.3825140502144
2024-01-04T19:12:34.510Z,1007.3818723681752
2024-01-04T19:20:29.803Z,1007.5029577151823
2024-01-04T19:30:13.991Z,1007.5141199317997
2024-01-04T19:33:50.187Z,1007.5004199113837
2024-01-04T19:37:16.756Z,1007.5640842765164
2024-01-04T19:40:42.490Z,1007.6200576956538
2024-01-04T19:44:05.528Z,1007.6020034272267
2024-01-04T19:49:58.819Z,1007.5958407242156
2024-01-04T19:56:38.262Z,1007.6881702253654
2024-01-04T19:59:58.105Z,1007.7086526100602
2024-01-04T20:06:35.633Z,1007.6141280934432
2024-01-04T20:09:55.163Z,1007.6148343633134
2024-01-04T20:13:14.316Z,1007.6203754239737
2024-01-04T20:16:36.307Z,1007.6148241466792
2024-01-04T20:19:56.722Z,1007.5945838859727
2024-01-04T20:23:15.491Z,1007.6123987451336
2024-01-04T20:26:35.588Z,1007.6584949621933
2024-01-04T20:29:54.494Z,1007.7019694944412
2024-01-04T20:33:14.928Z,1007.6926597600425
2024-01-04T20:36:34.614Z,1007.7609624960968
2024-01-04T20:39:53.989Z,1007.8090255079637
2024-01-04T20:43:12.960Z,1007.7633437682917
2024-01-04T20:46:32.862Z,1007.7352786541605
2024-01-04T20:49:53.119Z,1007.7437563306526
2024-01-04T20:55:56.973Z,1007.6790690308688
2024-01-04T20:59:16.974Z,1007.7044565541361
2024-01-04T21:02:48.454Z,1007.6888202061158
2024-01-04T21:06:11.830Z,1007.6722349289774
2024-01-04T21:09:33.911Z,1007.6771404134514
2024-01-04T21:12:54.306Z,1007.6798354573403
2024-01-04T21:16:16.952Z,1007.680989182503
2024-01-04T21:19:37.173Z,1007.6897693962151
2024-01-04T21:22:57.561Z,1007.6105141059743
2024-01-04T21:26:17.115Z,1007.6333533171595
2024-01-04T21:29:37.222Z,1007.6992473249209
2024-01-04T21:32:57.454Z,1007.6788914376302
2024-01-04T21:39:14.143Z,1007.651473423602
2024-01-04T21:44:07.926Z,1007.6097634630863
2024-01-04T21:47:28.345Z,1007.5858453789106
2024-01-04T21:50:48.490Z,1007.6065875601821
2024-01-04T21:54:07.574Z,1007.5900974554506
2024-01-04T21:57:39.750Z,1007.5755299770069
2024-01-04T22:03:52.970Z,1007.4051363039838
2024-01-04T22:09:24.602Z,1007.3843257610306
2024-01-04T22:12:43.761Z,1007.4571931383521
2024-01-04T22:16:03.944Z,1007.4601277240961
2024-01-04T22:19:23.259Z,1007.4706735769646
2024-01-04T22:22:42.457Z,1007.4176356073751
2024-01-04T22:29:02.462Z,1007.4974935861285
2024-01-04T22:32:22.154Z,1007.4436430059775
2024-01-04T22:35:42.467Z,1007.3789289419199
2024-01-04T22:39:02.140Z,1007.3821880157676
2024-01-04T22:45:24.849Z,1007.3334814120371
2024-01-04T22:48:45.086Z,1007.2472714373483
2024-01-04T22:52:04.869Z,1007.2251044377939
2024-01-04T22:55:24.992Z,1007.2014907593096
2024-01-04T23:00:07.560Z,1007.2357345245315
2024-01-04T23:03:27.446Z,1007.2079553731445
2024-01-04T23:06:47.908Z,1007.1757456126985
2024-01-04T23:10:07.429Z,1007.1000733288456
2024-01-04T23:13:26.710Z,1007.0607433434702
2024-01-04T23:16:47.026Z,1007.0169813610884
2024-01-04T23:20:06.223Z,1006.9554657009286
2024-01-04T23:23:26.566Z,1006.8590011617686
2024-01-04T23:28:22.090Z,1006.8300472624993
2024-01-04T23:31:41.552Z,1006.8248462643095
2024-01-04T23:35:01.621Z,1006.7853102553929
2024-01-04T23:38:21.139Z,1006.7782770295148
2024-01-04T23:41:41.726Z,1006.7615924836985
2024-01-04T23:45:01.449Z,1006.7776296062576
2024-01-04T23:52:10.466Z,1006.8597577124618
2024-01-04T23:55:30.035Z,1006.8666976641246
